sensor_id;sensor_type;location;lat;lon;timestamp;P1;durP1;ratioP1;P2;durP2;ratioP2
26080;SDS011;13991;51.174;4.438;2022-09-09T00:00:22;15.60;;;2.93;;
26080;SDS011;13991;51.174;4.438;2022-09-09T00:03:02;13.17;;;2.87;;
26080;SDS011;13991;51.174;4.438;2022-09-09T00:08:53;16.77;;;3.17;;
26080;SDS011;13991;51.174;4.438;2022-09-09T00:17:20;18.37;;;2.70;;
26080;SDS011;13991;51.174;4.438;2022-09-09T00:20:14;15.43;;;2.30;;
26080;SDS011;13991;51.174;4.438;2022-09-09T00:23:09;11.70;;;2.47;;
26080;SDS011;13991;51.174;4.438;2022-09-09T00:25:44;10.03;;;2.33;;
26080;SDS011;13991;51.174;4.438;2022-09-09T00:28:18;10.43;;;2.07;;
26080;SDS011;13991;51.174;4.438;2022-09-09T00:30:47;15.07;;;2.27;;
26080;SDS011;13991;51.174;4.438;2022-09-09T00:33:13;10.53;;;1.90;;
26080;SDS011;13991;51.174;4.438;2022-09-09T00:36:04;13.87;;;2.10;;
26080;SDS011;13991;51.174;4.438;2022-09-09T00:38:35;10.73;;;1.57;;
26080;SDS011;13991;51.174;4.438;2022-09-09T00:44:02;7.17;;;1.80;;
26080;SDS011;13991;51.174;4.438;2022-09-09T00:46:56;10.80;;;1.77;;
26080;SDS011;13991;51.174;4.438;2022-09-09T00:57:48;10.13;;;1.67;;
26080;SDS011;13991;51.174;4.438;2022-09-09T01:08:43;13.57;;;1.70;;
26080;SDS011;13991;51.174;4.438;2022-09-09T01:11:32;6.13;;;1.40;;
26080;SDS011;13991;51.174;4.438;2022-09-09T01:16:57;7.87;;;1.73;;
26080;SDS011;13991;51.174;4.438;2022-09-09T01:19:37;9.37;;;1.50;;
26080;SDS011;13991;51.174;4.438;2022-09-09T01:25:20;9.63;;;1.67;;
26080;SDS011;13991;51.174;4.438;2022-09-09T01:27:46;10.63;;;1.37;;
26080;SDS011;13991;51.174;4.438;2022-09-09T01:30:15;9.27;;;1.67;;
26080;SDS011;13991;51.174;4.438;2022-09-09T01:32:44;10.47;;;1.50;;
26080;SDS011;13991;51.174;4.438;2022-09-09T01:35:15;32.93;;;2.70;;
26080;SDS011;13991;51.174;4.438;2022-09-09T01:38:02;3.40;;;1.10;;
26080;SDS011;13991;51.174;4.438;2022-09-09T01:40:28;11.13;;;1.27;;
26080;SDS011;13991;51.174;4.438;2022-09-09T01:42:54;8.20;;;1.63;;
26080;SDS011;13991;51.174;4.438;2022-09-09T01:45:20;15.87;;;2.07;;
26080;SDS011;13991;51.174;4.438;2022-09-09T01:47:47;11.57;;;1.53;;
26080;SDS011;13991;51.174;4.438;2022-09-09T01:50:14;9.37;;;1.50;;
26080;SDS011;13991;51.174;4.438;2022-09-09T01:52:42;10.53;;;1.73;;
26080;SDS011;13991;51.174;4.438;2022-09-09T01:55:10;7.93;;;1.00;;
26080;SDS011;13991;51.174;4.438;2022-09-09T01:57:49;15.80;;;1.73;;
26080;SDS011;13991;51.174;4.438;2022-09-09T02:00:28;8.43;;;2.33;;
26080;SDS011;13991;51.174;4.438;2022-09-09T02:05:45;12.10;;;1.93;;
26080;SDS011;13991;51.174;4.438;2022-09-09T02:08:21;19.87;;;1.90;;
26080;SDS011;13991;51.174;4.438;2022-09-09T02:13:39;7.10;;;1.50;;
26080;SDS011;13991;51.174;4.438;2022-09-09T02:18:48;6.43;;;1.20;;
26080;SDS011;13991;51.174;4.438;2022-09-09T02:21:18;7.67;;;1.40;;
26080;SDS011;13991;51.174;4.438;2022-09-09T02:23:44;6.03;;;1.53;;
26080;SDS011;13991;51.174;4.438;2022-09-09T02:26:17;6.30;;;1.33;;
26080;SDS011;13991;51.174;4.438;2022-09-09T02:28:50;17.47;;;1.37;;
26080;SDS011;13991;51.174;4.438;2022-09-09T02:31:19;9.07;;;1.53;;
26080;SDS011;13991;51.174;4.438;2022-09-09T02:33:48;11.67;;;1.70;;
26080;SDS011;13991;51.174;4.438;2022-09-09T02:36:19;4.50;;;0.90;;
26080;SDS011;13991;51.174;4.438;2022-09-09T02:38:47;9.80;;;1.93;;
26080;SDS011;13991;51.174;4.438;2022-09-09T02:41:16;6.10;;;0.80;;
26080;SDS011;13991;51.174;4.438;2022-09-09T02:43:44;4.63;;;1.33;;
26080;SDS011;13991;51.174;4.438;2022-09-09T02:51:40;9.20;;;1.43;;
26080;SDS011;13991;51.174;4.438;2022-09-09T02:54:10;4.87;;;1.30;;
26080;SDS011;13991;51.174;4.438;2022-09-09T02:56:44;9.50;;;1.10;;
26080;SDS011;13991;51.174;4.438;2022-09-09T02:59:19;10.50;;;1.97;;
26080;SDS011;13991;51.174;4.438;2022-09-09T03:01:45;10.30;;;1.30;;
26080;SDS011;13991;51.174;4.438;2022-09-09T03:04:12;9.23;;;1.40;;
26080;SDS011;13991;51.174;4.438;2022-09-09T03:06:38;10.23;;;1.73;;
26080;SDS011;13991;51.174;4.438;2022-09-09T03:09:03;16.67;;;1.80;;
26080;SDS011;13991;51.174;4.438;2022-09-09T03:11:29;4.83;;;1.50;;
26080;SDS011;13991;51.174;4.438;2022-09-09T03:13:55;8.73;;;1.67;;
26080;SDS011;13991;51.174;4.438;2022-09-09T03:16:21;11.70;;;1.70;;
26080;SDS011;13991;51.174;4.438;2022-09-09T03:18:48;13.40;;;1.50;;
26080;SDS011;13991;51.174;4.438;2022-09-09T03:21:14;10.90;;;1.77;;
26080;SDS011;13991;51.174;4.438;2022-09-09T03:23:40;11.57;;;1.40;;
26080;SDS011;13991;51.174;4.438;2022-09-09T03:26:06;10.23;;;1.57;;
26080;SDS011;13991;51.174;4.438;2022-09-09T03:28:32;4.37;;;1.10;;
26080;SDS011;13991;51.174;4.438;2022-09-09T03:31:02;26.33;;;1.60;;
26080;SDS011;13991;51.174;4.438;2022-09-09T03:33:29;21.27;;;1.90;;
26080;SDS011;13991;51.174;4.438;2022-09-09T03:35:56;9.27;;;1.40;;
26080;SDS011;13991;51.174;4.438;2022-09-09T03:38:22;23.73;;;2.13;;
26080;SDS011;13991;51.174;4.438;2022-09-09T03:40:52;16.03;;;1.83;;
26080;SDS011;13991;51.174;4.438;2022-09-09T03:43:23;13.60;;;1.63;;
26080;SDS011;13991;51.174;4.438;2022-09-09T03:45:49;11.57;;;1.20;;
26080;SDS011;13991;51.174;4.438;2022-09-09T03:48:16;17.37;;;1.63;;
26080;SDS011;13991;51.174;4.438;2022-09-09T03:53:12;9.87;;;1.33;;
26080;SDS011;13991;51.174;4.438;2022-09-09T03:55:39;8.27;;;1.37;;
26080;SDS011;13991;51.174;4.438;2022-09-09T03:58:08;8.27;;;1.73;;
26080;SDS011;13991;51.174;4.438;2022-09-09T04:00:33;9.50;;;1.87;;
26080;SDS011;13991;51.174;4.438;2022-09-09T04:02:59;19.27;;;1.77;;
26080;SDS011;13991;51.174;4.438;2022-09-09T04:05:26;10.70;;;1.60;;
26080;SDS011;13991;51.174;4.438;2022-09-09T04:07:52;22.40;;;1.80;;
26080;SDS011;13991;51.174;4.438;2022-09-09T04:10:17;18.40;;;1.40;;
26080;SDS011;13991;51.174;4.438;2022-09-09T04:12:43;15.93;;;1.60;;
26080;SDS011;13991;51.174;4.438;2022-09-09T04:15:09;10.03;;;1.30;;
26080;SDS011;13991;51.174;4.438;2022-09-09T04:17:35;19.33;;;2.20;;
26080;SDS011;13991;51.174;4.438;2022-09-09T04:20:01;19.30;;;1.60;;
26080;SDS011;13991;51.174;4.438;2022-09-09T04:22:27;17.43;;;1.63;;
26080;SDS011;13991;51.174;4.438;2022-09-09T04:24:53;21.30;;;2.57;;
26080;SDS011;13991;51.174;4.438;2022-09-09T04:27:18;16.20;;;1.30;;
26080;SDS011;13991;51.174;4.438;2022-09-09T04:29:44;18.47;;;2.03;;
26080;SDS011;13991;51.174;4.438;2022-09-09T04:32:10;20.17;;;1.90;;
26080;SDS011;13991;51.174;4.438;2022-09-09T04:34:35;18.70;;;2.00;;
26080;SDS011;13991;51.174;4.438;2022-09-09T04:37:01;19.07;;;2.00;;
26080;SDS011;13991;51.174;4.438;2022-09-09T04:39:27;16.27;;;1.73;;
26080;SDS011;13991;51.174;4.438;2022-09-09T04:41:52;14.27;;;1.83;;
26080;SDS011;13991;51.174;4.438;2022-09-09T04:44:18;12.37;;;1.20;;
26080;SDS011;13991;51.174;4.438;2022-09-09T04:46:43;19.23;;;2.13;;
26080;SDS011;13991;51.174;4.438;2022-09-09T04:49:10;16.93;;;1.87;;
26080;SDS011;13991;51.174;4.438;2022-09-09T04:51:35;12.53;;;1.87;;
26080;SDS011;13991;51.174;4.438;2022-09-09T04:54:01;25.33;;;2.00;;
26080;SDS011;13991;51.174;4.438;2022-09-09T04:56:26;23.33;;;2.57;;
26080;SDS011;13991;51.174;4.438;2022-09-09T04:58:53;14.33;;;1.47;;
26080;SDS011;13991;51.174;4.438;2022-09-09T05:01:20;19.37;;;1.70;;
26080;SDS011;13991;51.174;4.438;2022-09-09T05:03:47;13.60;;;1.50;;
26080;SDS011;13991;51.174;4.438;2022-09-09T05:06:17;16.63;;;2.30;;
26080;SDS011;13991;51.174;4.438;2022-09-09T05:08:44;12.40;;;1.33;;
26080;SDS011;13991;51.174;4.438;2022-09-09T05:11:29;10.30;;;1.20;;
26080;SDS011;13991;51.174;4.438;2022-09-09T05:13:57;12.63;;;1.73;;
26080;SDS011;13991;51.174;4.438;2022-09-09T05:16:22;10.57;;;1.80;;
26080;SDS011;13991;51.174;4.438;2022-09-09T05:18:48;18.10;;;2.53;;
26080;SDS011;13991;51.174;4.438;2022-09-09T05:21:16;18.20;;;2.07;;
26080;SDS011;13991;51.174;4.438;2022-09-09T05:23:42;22.30;;;1.77;;
26080;SDS011;13991;51.174;4.438;2022-09-09T05:26:13;20.20;;;2.20;;
26080;SDS011;13991;51.174;4.438;2022-09-09T05:28:40;13.73;;;1.83;;
26080;SDS011;13991;51.174;4.438;2022-09-09T05:31:08;16.47;;;1.73;;
26080;SDS011;13991;51.174;4.438;2022-09-09T05:33:37;24.83;;;2.13;;
26080;SDS011;13991;51.174;4.438;2022-09-09T05:36:26;22.10;;;2.17;;
26080;SDS011;13991;51.174;4.438;2022-09-09T05:38:51;21.53;;;2.43;;
26080;SDS011;13991;51.174;4.438;2022-09-09T05:41:20;15.70;;;2.37;;
26080;SDS011;13991;51.174;4.438;2022-09-09T05:43:46;21.63;;;2.03;;
26080;SDS011;13991;51.174;4.438;2022-09-09T05:46:22;15.90;;;2.23;;
26080;SDS011;13991;51.174;4.438;2022-09-09T05:48:50;19.13;;;2.40;;
26080;SDS011;13991;51.174;4.438;2022-09-09T05:51:18;22.60;;;3.03;;
26080;SDS011;13991;51.174;4.438;2022-09-09T05:53:47;22.20;;;1.77;;
26080;SDS011;13991;51.174;4.438;2022-09-09T05:58:40;18.20;;;1.80;;
26080;SDS011;13991;51.174;4.438;2022-09-09T06:01:27;38.50;;;2.63;;
26080;SDS011;13991;51.174;4.438;2022-09-09T06:03:55;19.37;;;2.23;;
26080;SDS011;13991;51.174;4.438;2022-09-09T06:06:22;16.40;;;2.10;;
26080;SDS011;13991;51.174;4.438;2022-09-09T06:08:51;19.27;;;2.30;;
26080;SDS011;13991;51.174;4.438;2022-09-09T06:11:36;22.10;;;2.17;;
26080;SDS011;13991;51.174;4.438;2022-09-09T06:14:04;21.43;;;2.47;;
26080;SDS011;13991;51.174;4.438;2022-09-09T06:16:30;26.10;;;2.27;;
26080;SDS011;13991;51.174;4.438;2022-09-09T06:19:00;17.53;;;2.37;;
26080;SDS011;13991;51.174;4.438;2022-09-09T06:21:29;15.33;;;2.37;;
26080;SDS011;13991;51.174;4.438;2022-09-09T06:23:56;28.70;;;2.33;;
26080;SDS011;13991;51.174;4.438;2022-09-09T06:26:23;23.50;;;2.73;;
26080;SDS011;13991;51.174;4.438;2022-09-09T06:28:51;17.83;;;2.73;;
26080;SDS011;13991;51.174;4.438;2022-09-09T06:31:22;19.17;;;2.23;;
26080;SDS011;13991;51.174;4.438;2022-09-09T06:33:50;15.80;;;2.60;;
26080;SDS011;13991;51.174;4.438;2022-09-09T06:36:20;29.20;;;2.87;;
26080;SDS011;13991;51.174;4.438;2022-09-09T06:38:56;16.80;;;1.77;;
26080;SDS011;13991;51.174;4.438;2022-09-09T06:41:24;18.60;;;1.97;;
26080;SDS011;13991;51.174;4.438;2022-09-09T06:43:52;16.97;;;1.97;;
26080;SDS011;13991;51.174;4.438;2022-09-09T06:46:19;25.27;;;2.53;;
26080;SDS011;13991;51.174;4.438;2022-09-09T06:48:53;16.27;;;1.60;;
26080;SDS011;13991;51.174;4.438;2022-09-09T06:51:24;27.40;;;2.23;;
26080;SDS011;13991;51.174;4.438;2022-09-09T06:53:53;20.97;;;2.03;;
26080;SDS011;13991;51.174;4.438;2022-09-09T06:56:27;21.10;;;2.03;;
26080;SDS011;13991;51.174;4.438;2022-09-09T06:58:55;25.80;;;2.10;;
26080;SDS011;13991;51.174;4.438;2022-09-09T07:01:24;16.27;;;1.80;;
26080;SDS011;13991;51.174;4.438;2022-09-09T07:03:52;24.50;;;2.17;;
26080;SDS011;13991;51.174;4.438;2022-09-09T07:06:26;18.63;;;2.30;;
26080;SDS011;13991;51.174;4.438;2022-09-09T07:09:01;21.77;;;1.83;;
26080;SDS011;13991;51.174;4.438;2022-09-09T07:11:29;34.00;;;2.93;;
26080;SDS011;13991;51.174;4.438;2022-09-09T07:14:02;28.53;;;2.37;;
26080;SDS011;13991;51.174;4.438;2022-09-09T07:16:28;30.43;;;2.83;;
26080;SDS011;13991;51.174;4.438;2022-09-09T07:18:56;18.67;;;1.73;;
26080;SDS011;13991;51.174;4.438;2022-09-09T07:21:26;19.20;;;2.20;;
26080;SDS011;13991;51.174;4.438;2022-09-09T07:23:53;16.47;;;2.00;;
26080;SDS011;13991;51.174;4.438;2022-09-09T07:26:20;13.43;;;2.10;;
26080;SDS011;13991;51.174;4.438;2022-09-09T07:28:47;14.40;;;2.10;;
26080;SDS011;13991;51.174;4.438;2022-09-09T07:31:32;24.97;;;1.93;;
26080;SDS011;13991;51.174;4.438;2022-09-09T07:33:59;16.37;;;1.97;;
26080;SDS011;13991;51.174;4.438;2022-09-09T07:36:31;30.13;;;2.10;;
26080;SDS011;13991;51.174;4.438;2022-09-09T07:39:03;22.63;;;1.97;;
26080;SDS011;13991;51.174;4.438;2022-09-09T07:41:35;17.17;;;1.83;;
26080;SDS011;13991;51.174;4.438;2022-09-09T07:44:07;20.70;;;2.10;;
26080;SDS011;13991;51.174;4.438;2022-09-09T07:46:41;18.93;;;2.10;;
26080;SDS011;13991;51.174;4.438;2022-09-09T07:49:07;11.30;;;1.67;;
26080;SDS011;13991;51.174;4.438;2022-09-09T07:51:35;15.53;;;1.77;;
26080;SDS011;13991;51.174;4.438;2022-09-09T07:54:04;26.33;;;2.03;;
26080;SDS011;13991;51.174;4.438;2022-09-09T07:56:32;15.23;;;2.07;;
26080;SDS011;13991;51.174;4.438;2022-09-09T07:58:58;16.80;;;1.90;;
26080;SDS011;13991;51.174;4.438;2022-09-09T08:03:57;16.13;;;1.93;;
26080;SDS011;13991;51.174;4.438;2022-09-09T08:06:27;20.57;;;1.73;;
26080;SDS011;13991;51.174;4.438;2022-09-09T08:08:54;20.17;;;1.57;;
26080;SDS011;13991;51.174;4.438;2022-09-09T08:11:21;16.73;;;1.50;;
26080;SDS011;13991;51.174;4.438;2022-09-09T08:13:48;24.60;;;1.40;;
26080;SDS011;13991;51.174;4.438;2022-09-09T08:16:15;13.27;;;1.87;;
26080;SDS011;13991;51.174;4.438;2022-09-09T08:18:43;15.97;;;1.87;;
26080;SDS011;13991;51.174;4.438;2022-09-09T08:23:37;16.77;;;2.13;;
26080;SDS011;13991;51.174;4.438;2022-09-09T08:26:09;15.73;;;1.63;;
26080;SDS011;13991;51.174;4.438;2022-09-09T08:28:36;23.47;;;1.73;;
26080;SDS011;13991;51.174;4.438;2022-09-09T08:31:13;23.63;;;1.90;;
26080;SDS011;13991;51.174;4.438;2022-09-09T08:33:40;18.27;;;1.70;;
26080;SDS011;13991;51.174;4.438;2022-09-09T08:36:08;17.13;;;1.67;;
26080;SDS011;13991;51.174;4.438;2022-09-09T08:38:35;26.53;;;2.70;;
26080;SDS011;13991;51.174;4.438;2022-09-09T08:53:05;15.50;;;2.30;;
26080;SDS011;13991;51.174;4.438;2022-09-09T08:58:25;17.03;;;1.63;;
26080;SDS011;13991;51.174;4.438;2022-09-09T09:03:40;25.67;;;2.10;;
26080;SDS011;13991;51.174;4.438;2022-09-09T09:11:40;11.90;;;1.43;;
26080;SDS011;13991;51.174;4.438;2022-09-09T09:16:52;14.53;;;1.50;;
26080;SDS011;13991;51.174;4.438;2022-09-09T09:19:21;13.57;;;1.53;;
26080;SDS011;13991;51.174;4.438;2022-09-09T09:21:53;18.10;;;1.53;;
26080;SDS011;13991;51.174;4.438;2022-09-09T09:27:32;18.47;;;2.10;;
26080;SDS011;13991;51.174;4.438;2022-09-09T09:30:23;21.37;;;1.90;;
26080;SDS011;13991;51.174;4.438;2022-09-09T09:32:53;11.27;;;2.03;;
26080;SDS011;13991;51.174;4.438;2022-09-09T09:35:23;14.17;;;1.40;;
26080;SDS011;13991;51.174;4.438;2022-09-09T09:37:49;18.80;;;2.20;;
26080;SDS011;13991;51.174;4.438;2022-09-09T09:40:17;15.20;;;1.60;;
26080;SDS011;13991;51.174;4.438;2022-09-09T09:42:57;14.23;;;1.90;;
26080;SDS011;13991;51.174;4.438;2022-09-09T09:48:12;19.57;;;2.40;;
26080;SDS011;13991;51.174;4.438;2022-09-09T09:53:20;14.97;;;1.57;;
26080;SDS011;13991;51.174;4.438;2022-09-09T09:56:28;21.10;;;1.53;;
26080;SDS011;13991;51.174;4.438;2022-09-09T09:58:48;15.97;;;1.83;;
26080;SDS011;13991;51.174;4.438;2022-09-09T10:01:29;13.30;;;1.17;;
26080;SDS011;13991;51.174;4.438;2022-09-09T10:04:13;13.10;;;1.20;;
26080;SDS011;13991;51.174;4.438;2022-09-09T10:06:41;15.63;;;2.33;;
26080;SDS011;13991;51.174;4.438;2022-09-09T10:09:23;13.43;;;1.67;;
26080;SDS011;13991;51.174;4.438;2022-09-09T10:20:40;17.53;;;1.30;;
26080;SDS011;13991;51.174;4.438;2022-09-09T10:28:44;15.97;;;1.63;;
26080;SDS011;13991;51.174;4.438;2022-09-09T10:36:46;10.40;;;1.50;;
26080;SDS011;13991;51.174;4.438;2022-09-09T10:41:50;7.73;;;1.20;;
26080;SDS011;13991;51.174;4.438;2022-09-09T10:55:41;16.97;;;1.67;;
26080;SDS011;13991;51.174;4.438;2022-09-09T10:58:28;9.03;;;1.00;;
26080;SDS011;13991;51.174;4.438;2022-09-09T11:01:18;10.80;;;1.43;;
26080;SDS011;13991;51.174;4.438;2022-09-09T11:04:22;12.90;;;1.53;;
26080;SDS011;13991;51.174;4.438;2022-09-09T11:06:54;12.77;;;1.20;;
26080;SDS011;13991;51.174;4.438;2022-09-09T11:09:31;17.67;;;1.53;;
26080;SDS011;13991;51.174;4.438;2022-09-09T11:12:04;12.90;;;1.37;;
26080;SDS011;13991;51.174;4.438;2022-09-09T11:14:41;12.50;;;1.30;;
26080;SDS011;13991;51.174;4.438;2022-09-09T11:17:12;10.00;;;1.67;;
26080;SDS011;13991;51.174;4.438;2022-09-09T11:19:43;14.40;;;1.43;;
26080;SDS011;13991;51.174;4.438;2022-09-09T11:33:34;18.27;;;1.53;;
26080;SDS011;13991;51.174;4.438;2022-09-09T11:38:58;7.20;;;0.90;;
26080;SDS011;13991;51.174;4.438;2022-09-09T11:41:43;16.50;;;2.40;;
26080;SDS011;13991;51.174;4.438;2022-09-09T11:44:12;9.23;;;1.20;;
26080;SDS011;13991;51.174;4.438;2022-09-09T11:46:45;8.30;;;1.47;;
26080;SDS011;13991;51.174;4.438;2022-09-09T11:52:11;5.67;;;0.63;;
26080;SDS011;13991;51.174;4.438;2022-09-09T11:54:46;9.80;;;1.10;;
26080;SDS011;13991;51.174;4.438;2022-09-09T11:57:31;6.80;;;0.90;;
26080;SDS011;13991;51.174;4.438;2022-09-09T11:59:59;10.10;;;0.73;;
26080;SDS011;13991;51.174;4.438;2022-09-09T12:02:26;4.00;;;0.60;;
26080;SDS011;13991;51.174;4.438;2022-09-09T12:05:06;4.40;;;0.60;;
26080;SDS011;13991;51.174;4.438;2022-09-09T12:12:33;9.40;;;0.60;;
26080;SDS011;13991;51.174;4.438;2022-09-09T12:15:03;7.87;;;1.30;;
26080;SDS011;13991;51.174;4.438;2022-09-09T12:17:50;4.20;;;0.70;;
26080;SDS011;13991;51.174;4.438;2022-09-09T12:20:19;11.90;;;0.83;;
26080;SDS011;13991;51.174;4.438;2022-09-09T12:27:00;8.57;;;0.50;;
26080;SDS011;13991;51.174;4.438;2022-09-09T12:31:55;3.80;;;0.80;;
26080;SDS011;13991;51.174;4.438;2022-09-09T12:34:44;12.03;;;0.70;;
26080;SDS011;13991;51.174;4.438;2022-09-09T12:39:56;6.00;;;1.17;;
26080;SDS011;13991;51.174;4.438;2022-09-09T12:42:24;5.57;;;1.17;;
26080;SDS011;13991;51.174;4.438;2022-09-09T12:44:52;6.67;;;0.60;;
26080;SDS011;13991;51.174;4.438;2022-09-09T12:47:47;7.07;;;0.80;;
26080;SDS011;13991;51.174;4.438;2022-09-09T12:50:33;6.17;;;0.73;;
26080;SDS011;13991;51.174;4.438;2022-09-09T12:53:21;4.93;;;0.90;;
26080;SDS011;13991;51.174;4.438;2022-09-09T12:56:06;10.27;;;1.07;;
26080;SDS011;13991;51.174;4.438;2022-09-09T12:58:33;12.47;;;1.07;;
26080;SDS011;13991;51.174;4.438;2022-09-09T13:01:01;8.50;;;0.77;;
26080;SDS011;13991;51.174;4.438;2022-09-09T13:03:33;10.00;;;0.70;;
26080;SDS011;13991;51.174;4.438;2022-09-09T13:06:12;6.80;;;0.70;;
26080;SDS011;13991;51.174;4.438;2022-09-09T13:08:43;4.30;;;0.70;;
26080;SDS011;13991;51.174;4.438;2022-09-09T13:11:10;13.73;;;1.20;;
26080;SDS011;13991;51.174;4.438;2022-09-09T13:13:41;4.53;;;0.50;;
26080;SDS011;13991;51.174;4.438;2022-09-09T13:19:07;6.20;;;0.63;;
26080;SDS011;13991;51.174;4.438;2022-09-09T13:21:35;5.97;;;0.80;;
26080;SDS011;13991;51.174;4.438;2022-09-09T13:24:05;6.33;;;0.70;;
26080;SDS011;13991;51.174;4.438;2022-09-09T13:26:53;8.40;;;0.80;;
26080;SDS011;13991;51.174;4.438;2022-09-09T13:29:21;27.87;;;2.30;;
26080;SDS011;13991;51.174;4.438;2022-09-09T13:31:47;5.53;;;0.70;;
26080;SDS011;13991;51.174;4.438;2022-09-09T13:34:14;2.60;;;0.60;;
26080;SDS011;13991;51.174;4.438;2022-09-09T13:37:01;10.53;;;1.17;;
26080;SDS011;13991;51.174;4.438;2022-09-09T13:39:31;10.63;;;0.80;;
26080;SDS011;13991;51.174;4.438;2022-09-09T13:41:59;6.60;;;0.97;;
26080;SDS011;13991;51.174;4.438;2022-09-09T13:44:28;9.90;;;1.13;;
26080;SDS011;13991;51.174;4.438;2022-09-09T13:47:04;5.77;;;0.77;;
26080;SDS011;13991;51.174;4.438;2022-09-09T13:49:32;22.23;;;0.80;;
26080;SDS011;13991;51.174;4.438;2022-09-09T13:52:09;5.57;;;1.00;;
26080;SDS011;13991;51.174;4.438;2022-09-09T13:54:39;11.43;;;0.80;;
26080;SDS011;13991;51.174;4.438;2022-09-09T13:57:12;10.27;;;1.03;;
26080;SDS011;13991;51.174;4.438;2022-09-09T13:59:46;6.00;;;0.63;;
26080;SDS011;13991;51.174;4.438;2022-09-09T14:02:13;6.83;;;0.93;;
26080;SDS011;13991;51.174;4.438;2022-09-09T14:04:39;2.27;;;0.50;;
26080;SDS011;13991;51.174;4.438;2022-09-09T14:07:08;2.97;;;0.50;;
26080;SDS011;13991;51.174;4.438;2022-09-09T14:09:39;2.67;;;0.70;;
26080;SDS011;13991;51.174;4.438;2022-09-09T14:12:05;6.10;;;0.50;;
26080;SDS011;13991;51.174;4.438;2022-09-09T14:14:34;4.17;;;0.50;;
26080;SDS011;13991;51.174;4.438;2022-09-09T14:17:00;4.43;;;0.40;;
26080;SDS011;13991;51.174;4.438;2022-09-09T14:19:25;8.57;;;1.00;;
26080;SDS011;13991;51.174;4.438;2022-09-09T14:21:51;9.47;;;1.63;;
26080;SDS011;13991;51.174;4.438;2022-09-09T14:24:17;11.13;;;0.77;;
26080;SDS011;13991;51.174;4.438;2022-09-09T14:26:42;8.13;;;0.93;;
26080;SDS011;13991;51.174;4.438;2022-09-09T14:29:08;5.17;;;0.73;;
26080;SDS011;13991;51.174;4.438;2022-09-09T14:31:34;5.30;;;0.80;;
26080;SDS011;13991;51.174;4.438;2022-09-09T14:33:59;6.07;;;0.60;;
26080;SDS011;13991;51.174;4.438;2022-09-09T14:36:25;6.53;;;0.90;;
26080;SDS011;13991;51.174;4.438;2022-09-09T14:38:51;4.73;;;0.50;;
26080;SDS011;13991;51.174;4.438;2022-09-09T14:41:17;9.23;;;0.83;;
26080;SDS011;13991;51.174;4.438;2022-09-09T14:43:44;7.60;;;0.80;;
26080;SDS011;13991;51.174;4.438;2022-09-09T14:46:12;5.10;;;0.63;;
26080;SDS011;13991;51.174;4.438;2022-09-09T14:48:39;5.13;;;0.60;;
26080;SDS011;13991;51.174;4.438;2022-09-09T14:51:09;7.53;;;0.90;;
26080;SDS011;13991;51.174;4.438;2022-09-09T14:53:38;6.50;;;0.70;;
26080;SDS011;13991;51.174;4.438;2022-09-09T14:56:09;10.07;;;0.73;;
26080;SDS011;13991;51.174;4.438;2022-09-09T14:58:39;8.47;;;0.83;;
26080;SDS011;13991;51.174;4.438;2022-09-09T15:01:06;4.47;;;0.40;;
26080;SDS011;13991;51.174;4.438;2022-09-09T15:03:35;4.40;;;0.60;;
26080;SDS011;13991;51.174;4.438;2022-09-09T15:06:11;7.03;;;0.90;;
26080;SDS011;13991;51.174;4.438;2022-09-09T15:08:40;4.33;;;0.70;;
26080;SDS011;13991;51.174;4.438;2022-09-09T15:11:07;2.13;;;0.50;;
26080;SDS011;13991;51.174;4.438;2022-09-09T15:13:34;6.33;;;0.67;;
26080;SDS011;13991;51.174;4.438;2022-09-09T15:16:12;6.10;;;0.60;;
26080;SDS011;13991;51.174;4.438;2022-09-09T15:18:40;5.17;;;0.73;;
26080;SDS011;13991;51.174;4.438;2022-09-09T15:21:10;2.83;;;0.50;;
26080;SDS011;13991;51.174;4.438;2022-09-09T15:23:46;4.57;;;0.70;;
26080;SDS011;13991;51.174;4.438;2022-09-09T15:26:13;5.80;;;1.07;;
26080;SDS011;13991;51.174;4.438;2022-09-09T15:28:40;6.43;;;0.93;;
26080;SDS011;13991;51.174;4.438;2022-09-09T15:31:30;10.43;;;1.53;;
26080;SDS011;13991;51.174;4.438;2022-09-09T15:33:56;8.60;;;0.60;;
26080;SDS011;13991;51.174;4.438;2022-09-09T15:36:30;6.53;;;0.80;;
26080;SDS011;13991;51.174;4.438;2022-09-09T15:38:58;5.70;;;0.70;;
26080;SDS011;13991;51.174;4.438;2022-09-09T15:41:25;5.07;;;0.47;;
26080;SDS011;13991;51.174;4.438;2022-09-09T15:43:52;6.30;;;0.50;;
26080;SDS011;13991;51.174;4.438;2022-09-09T15:46:26;3.63;;;0.60;;
26080;SDS011;13991;51.174;4.438;2022-09-09T15:48:58;3.13;;;0.33;;
26080;SDS011;13991;51.174;4.438;2022-09-09T15:51:34;4.37;;;0.60;;
26080;SDS011;13991;51.174;4.438;2022-09-09T15:54:00;4.57;;;0.77;;
26080;SDS011;13991;51.174;4.438;2022-09-09T15:56:26;6.60;;;0.70;;
26080;SDS011;13991;51.174;4.438;2022-09-09T15:58:53;4.33;;;0.67;;
26080;SDS011;13991;51.174;4.438;2022-09-09T16:01:20;4.90;;;0.63;;
26080;SDS011;13991;51.174;4.438;2022-09-09T16:03:46;6.30;;;0.57;;
26080;SDS011;13991;51.174;4.438;2022-09-09T16:06:16;6.63;;;0.47;;
26080;SDS011;13991;51.174;4.438;2022-09-09T16:08:44;4.43;;;0.87;;
26080;SDS011;13991;51.174;4.438;2022-09-09T16:11:11;7.90;;;0.50;;
26080;SDS011;13991;51.174;4.438;2022-09-09T16:13:44;9.07;;;1.03;;
26080;SDS011;13991;51.174;4.438;2022-09-09T16:16:11;4.80;;;0.67;;
26080;SDS011;13991;51.174;4.438;2022-09-09T16:18:45;6.67;;;0.80;;
26080;SDS011;13991;51.174;4.438;2022-09-09T16:21:14;5.47;;;0.87;;
26080;SDS011;13991;51.174;4.438;2022-09-09T16:23:44;8.83;;;1.10;;
26080;SDS011;13991;51.174;4.438;2022-09-09T16:26:11;8.63;;;1.03;;
26080;SDS011;13991;51.174;4.438;2022-09-09T16:28:38;8.50;;;1.10;;
26080;SDS011;13991;51.174;4.438;2022-09-09T16:31:09;3.83;;;0.80;;
26080;SDS011;13991;51.174;4.438;2022-09-09T16:33:38;5.37;;;0.90;;
26080;SDS011;13991;51.174;4.438;2022-09-09T16:36:08;4.97;;;0.90;;
26080;SDS011;13991;51.174;4.438;2022-09-09T16:38:40;4.83;;;0.77;;
26080;SDS011;13991;51.174;4.438;2022-09-09T16:41:06;10.27;;;1.27;;
26080;SDS011;13991;51.174;4.438;2022-09-09T16:43:34;5.87;;;1.23;;
26080;SDS011;13991;51.174;4.438;2022-09-09T16:46:01;7.43;;;1.20;;
26080;SDS011;13991;51.174;4.438;2022-09-09T16:48:57;7.13;;;1.17;;
26080;SDS011;13991;51.174;4.438;2022-09-09T16:51:25;5.40;;;1.23;;
26080;SDS011;13991;51.174;4.438;2022-09-09T16:53:52;7.43;;;1.10;;
26080;SDS011;13991;51.174;4.438;2022-09-09T16:56:19;7.80;;;1.60;;
26080;SDS011;13991;51.174;4.438;2022-09-09T16:58:53;5.27;;;1.37;;
26080;SDS011;13991;51.174;4.438;2022-09-09T17:01:28;10.77;;;2.03;;
26080;SDS011;13991;51.174;4.438;2022-09-09T17:03:58;7.63;;;2.17;;
26080;SDS011;13991;51.174;4.438;2022-09-09T17:06:29;6.23;;;1.80;;
26080;SDS011;13991;51.174;4.438;2022-09-09T17:08:55;10.20;;;2.00;;
26080;SDS011;13991;51.174;4.438;2022-09-09T17:11:22;8.83;;;2.13;;
26080;SDS011;13991;51.174;4.438;2022-09-09T17:13:49;13.83;;;2.30;;
26080;SDS011;13991;51.174;4.438;2022-09-09T17:16:16;16.63;;;1.57;;
26080;SDS011;13991;51.174;4.438;2022-09-09T17:18:42;8.57;;;1.60;;
26080;SDS011;13991;51.174;4.438;2022-09-09T17:21:13;13.13;;;2.23;;
26080;SDS011;13991;51.174;4.438;2022-09-09T17:23:41;12.60;;;2.07;;
26080;SDS011;13991;51.174;4.438;2022-09-09T17:26:07;14.03;;;2.47;;
26080;SDS011;13991;51.174;4.438;2022-09-09T17:28:39;18.37;;;2.70;;
26080;SDS011;13991;51.174;4.438;2022-09-09T17:31:06;10.33;;;1.80;;
26080;SDS011;13991;51.174;4.438;2022-09-09T17:33:33;11.97;;;2.00;;
26080;SDS011;13991;51.174;4.438;2022-09-09T17:36:01;9.03;;;1.97;;
26080;SDS011;13991;51.174;4.438;2022-09-09T17:38:39;9.93;;;1.73;;
26080;SDS011;13991;51.174;4.438;2022-09-09T17:41:08;7.23;;;1.93;;